createdAt,value
2019-06-08T00:00:24.273Z,23.00
2019-06-08T00:02:57.289Z,22.80
2019-06-08T00:05:28.563Z,22.60
2019-06-08T00:07:59.589Z,22.30
2019-06-08T00:10:30.478Z,22.10
2019-06-08T00:13:01.131Z,21.90
2019-06-08T00:15:31.807Z,21.80
2019-06-08T00:18:03.249Z,21.90
2019-06-08T00:20:34.124Z,21.80
2019-06-08T00:23:04.815Z,21.70
2019-06-08T00:25:35.773Z,21.70
2019-06-08T00:28:06.683Z,21.70
2019-06-08T00:30:39.165Z,21.80
2019-06-08T00:33:10.284Z,21.90
2019-06-08T00:35:40.896Z,22.00
2019-06-08T00:38:13.164Z,22.10
2019-06-08T00:40:45.597Z,22.20
2019-06-08T00:43:17.262Z,22.40
2019-06-08T00:45:48.090Z,22.40
2019-06-08T00:48:19.818Z,22.40
2019-06-08T00:50:52.805Z,22.40
2019-06-08T00:53:23.521Z,22.40
2019-06-08T00:55:54.497Z,22.30
2019-06-08T00:58:26.395Z,22.00
2019-06-08T01:00:57.053Z,21.90
2019-06-08T01:03:27.681Z,21.60
2019-06-08T01:05:58.625Z,21.50
2019-06-08T01:08:29.383Z,21.30
2019-06-08T01:11:00.098Z,21.20
2019-06-08T01:13:33.084Z,21.00
2019-06-08T01:16:03.603Z,20.90
2019-06-08T01:18:34.231Z,20.80
2019-06-08T01:21:05.025Z,20.70
2019-06-08T01:23:35.640Z,20.70
2019-06-08T01:26:06.815Z,20.70
2019-06-08T01:28:37.313Z,20.60
2019-06-08T01:31:07.894Z,20.60
2019-06-08T01:33:38.531Z,20.40
2019-06-08T01:36:09.083Z,20.40
2019-06-08T01:38:39.668Z,20.40
2019-06-08T01:41:10.599Z,20.30
2019-06-08T01:43:41.278Z,20.30
2019-06-08T01:46:12.265Z,20.20
2019-06-08T01:48:43.014Z,20.10
2019-06-08T01:51:13.567Z,20.00
2019-06-08T01:53:44.480Z,20.10
2019-06-08T01:56:14.991Z,19.90
2019-06-08T01:58:46.189Z,20.00
2019-06-08T02:01:18.069Z,19.90
2019-06-08T02:03:49.676Z,19.90
2019-06-08T02:06:20.292Z,19.80
2019-06-08T02:08:50.835Z,19.20
2019-06-08T02:11:22.265Z,19.70
2019-06-08T02:13:52.760Z,19.70
2019-06-08T02:16:23.572Z,19.60
2019-06-08T02:18:54.304Z,19.70
2019-06-08T02:21:25.020Z,19.70
2019-06-08T02:23:56.465Z,19.70
2019-06-08T02:26:28.694Z,19.80
2019-06-08T02:28:59.708Z,19.90
2019-06-08T02:31:31.294Z,20.00
2019-06-08T02:34:03.624Z,20.20
2019-06-08T02:36:35.883Z,20.30
2019-06-08T02:39:07.993Z,20.10
2019-06-08T02:41:39.957Z,20.00
2019-06-08T02:44:10.711Z,19.90
2019-06-08T02:46:41.662Z,19.80
2019-06-08T02:49:12.193Z,19.70
2019-06-08T02:51:43.366Z,19.80
2019-06-08T02:54:14.095Z,19.80
2019-06-08T02:56:45.981Z,19.90
2019-06-08T02:59:18.418Z,19.80
2019-06-08T03:01:50.770Z,19.70
2019-06-08T03:04:23.986Z,19.70
2019-06-08T03:06:57.176Z,19.70
2019-06-08T03:09:30.337Z,19.80
2019-06-08T03:12:03.071Z,19.80
2019-06-08T03:14:35.452Z,19.70
2019-06-08T03:17:05.989Z,19.70
2019-06-08T03:19:37.577Z,19.60
2019-06-08T03:22:10.822Z,19.50
2019-06-08T03:24:41.605Z,19.60
2019-06-08T03:27:13.161Z,19.60
2019-06-08T03:29:44.073Z,19.70
2019-06-08T03:32:14.818Z,19.80
2019-06-08T03:34:53.996Z,19.70
2019-06-08T03:37:17.679Z,19.70
2019-06-08T03:39:48.665Z,19.80
2019-06-08T03:42:19.138Z,19.80
2019-06-08T03:44:49.656Z,19.90
2019-06-08T03:48:03.220Z,19.90
2019-06-08T03:50:35.520Z,20.00
2019-06-08T03:53:06.103Z,20.00
2019-06-08T03:55:38.004Z,19.90
2019-06-08T03:58:10.520Z,20.00
2019-06-08T04:00:42.418Z,20.20
2019-06-08T04:03:13.170Z,20.10
2019-06-08T04:05:44.855Z,20.00
2019-06-08T04:08:16.209Z,19.20
2019-06-08T04:10:47.003Z,19.80
2019-06-08T04:13:17.715Z,19.70
2019-06-08T04:15:50.260Z,18.80
2019-06-08T04:18:21.183Z,19.70
2019-06-08T04:20:52.045Z,19.70
2019-06-08T04:23:22.655Z,19.70
2019-06-08T04:25:53.292Z,19.80
2019-06-08T04:28:23.916Z,19.80
2019-06-08T04:30:54.563Z,19.70
2019-06-08T04:33:25.587Z,19.80
2019-06-08T04:35:56.381Z,19.80
2019-06-08T04:38:27.686Z,19.80
2019-06-08T04:40:58.251Z,19.80
2019-06-08T04:43:28.792Z,19.80
2019-06-08T04:45:59.895Z,19.90
2019-06-08T04:48:30.628Z,19.80
2019-06-08T04:51:01.204Z,19.70
2019-06-08T04:53:31.959Z,19.50
2019-06-08T04:56:02.498Z,19.50
2019-06-08T04:58:33.053Z,19.30
2019-06-08T05:01:03.620Z,19.20
2019-06-08T05:03:34.729Z,19.20
2019-06-08T05:06:05.266Z,19.30
2019-06-08T05:08:36.296Z,19.40
2019-06-08T05:11:07.502Z,19.50
2019-06-08T05:13:39.133Z,19.70
2019-06-08T05:16:17.605Z,19.90
2019-06-08T05:18:53.420Z,19.90
2019-06-08T05:21:24.559Z,19.80
2019-06-08T05:23:58.965Z,20.00
2019-06-08T05:26:28.245Z,20.20
2019-06-08T05:28:58.926Z,19.20
2019-06-08T05:31:29.549Z,20.40
2019-06-08T05:34:00.969Z,20.30
2019-06-08T05:36:31.670Z,20.20
2019-06-08T05:39:02.636Z,20.20
2019-06-08T05:41:33.467Z,20.10
2019-06-08T05:44:04.111Z,20.10
2019-06-08T05:46:34.813Z,20.10
2019-06-08T05:49:05.656Z,20.20
2019-06-08T05:51:39.769Z,20.10
2019-06-08T05:54:10.275Z,20.00
2019-06-08T05:56:41.959Z,20.00
2019-06-08T05:59:12.586Z,19.90
2019-06-08T06:01:44.585Z,19.90
2019-06-08T06:04:15.268Z,19.50
2019-06-08T06:06:46.630Z,19.80
2019-06-08T06:09:18.143Z,19.30
2019-06-08T06:11:48.932Z,19.50
2019-06-08T06:14:19.640Z,19.70
2019-06-08T06:16:51.323Z,19.70
2019-06-08T06:19:22.090Z,19.70
2019-06-08T06:21:52.784Z,20.00
2019-06-08T06:24:23.324Z,19.80
2019-06-08T06:26:57.536Z,19.70
2019-06-08T06:29:28.282Z,19.60
2019-06-08T06:31:59.099Z,19.60
2019-06-08T06:34:29.829Z,19.70
2019-06-08T06:37:00.421Z,19.80
2019-06-08T06:39:32.068Z,19.90
2019-06-08T06:42:02.700Z,20.00
2019-06-08T06:44:33.782Z,20.00
2019-06-08T06:47:10.030Z,20.10
2019-06-08T06:49:46.291Z,20.10
2019-06-08T06:52:17.916Z,20.00
2019-06-08T06:54:48.967Z,20.00
2019-06-08T06:57:19.652Z,20.10
2019-06-08T06:59:51.721Z,20.10
2019-06-08T07:02:23.857Z,20.20
2019-06-08T07:04:54.781Z,20.20
2019-06-08T07:07:25.547Z,20.30
2019-06-08T07:09:56.566Z,20.40
2019-06-08T07:12:27.651Z,20.50
2019-06-08T07:14:59.198Z,20.50
2019-06-08T07:17:29.891Z,20.60
2019-06-08T07:20:00.869Z,19.80
2019-06-08T07:22:31.443Z,20.70
2019-06-08T07:25:02.029Z,20.70
2019-06-08T07:27:32.693Z,20.80
2019-06-08T07:30:03.806Z,20.80
2019-06-08T07:32:34.516Z,20.90
2019-06-08T07:35:05.445Z,20.90
2019-06-08T07:37:36.261Z,21.20
2019-06-08T07:40:07.639Z,20.80
2019-06-08T07:42:39.135Z,20.80
2019-06-08T07:45:11.757Z,20.90
2019-06-08T07:47:42.274Z,20.90
2019-06-08T07:50:13.419Z,20.90
2019-06-08T07:52:44.115Z,21.10
2019-06-08T07:55:14.727Z,21.20
2019-06-08T07:57:48.581Z,21.20
2019-06-08T08:00:18.447Z,20.70
2019-06-08T08:02:50.151Z,21.40
2019-06-08T08:05:20.740Z,21.20
2019-06-08T08:07:52.514Z,21.70
2019-06-08T08:10:23.433Z,21.70
2019-06-08T08:12:54.732Z,21.80
2019-06-08T08:15:26.142Z,21.70
2019-06-08T08:17:57.724Z,21.60
2019-06-08T08:20:29.725Z,21.60
2019-06-08T08:23:05.549Z,21.70
2019-06-08T08:25:32.857Z,22.00
2019-06-08T08:28:04.086Z,22.00
2019-06-08T08:30:37.525Z,22.10
2019-06-08T08:33:07.916Z,22.10
2019-06-08T08:35:39.024Z,22.30
2019-06-08T08:38:09.917Z,22.30
2019-06-08T08:40:40.695Z,22.40
2019-06-08T08:43:11.644Z,22.50
2019-06-08T08:45:42.417Z,22.60
2019-06-08T08:48:24.699Z,22.80
2019-06-08T08:50:48.171Z,22.90
2019-06-08T08:53:19.083Z,23.00
2019-06-08T08:55:50.803Z,22.90
2019-06-08T08:58:21.558Z,22.80
2019-06-08T09:00:53.502Z,22.80
2019-06-08T09:03:29.535Z,22.80
2019-06-08T09:06:00.510Z,22.80
2019-06-08T09:08:29.788Z,22.70
2019-06-08T09:11:02.403Z,22.70
2019-06-08T09:13:33.161Z,22.70
2019-06-08T09:16:04.269Z,22.60
2019-06-08T09:18:37.351Z,22.70
2019-06-08T09:21:08.422Z,22.80
2019-06-08T09:23:39.372Z,22.60
2019-06-08T09:26:13.020Z,22.60
2019-06-08T09:28:43.507Z,22.70
2019-06-08T09:31:14.159Z,22.90
2019-06-08T09:33:53.422Z,22.90
2019-06-08T09:36:17.893Z,23.10
2019-06-08T09:38:48.579Z,23.20
2019-06-08T09:41:19.238Z,23.30
2019-06-08T09:43:49.952Z,23.30
2019-06-08T09:46:20.520Z,23.30
2019-06-08T09:48:51.174Z,23.60
2019-06-08T09:51:21.882Z,23.80
2019-06-08T09:53:54.210Z,23.90
2019-06-08T09:56:24.887Z,24.00
2019-06-08T09:58:56.433Z,24.10
2019-06-08T10:01:28.751Z,24.20
2019-06-08T10:04:02.392Z,24.10
2019-06-08T10:06:31.785Z,23.80
2019-06-08T10:09:02.795Z,24.00
2019-06-08T10:11:37.836Z,23.50
2019-06-08T10:14:12.343Z,24.10
2019-06-08T10:16:42.750Z,24.80
2019-06-08T10:19:13.493Z,24.30
2019-06-08T10:21:44.235Z,24.30
2019-06-08T10:24:14.797Z,24.30
2019-06-08T10:26:47.638Z,24.40
2019-06-08T10:29:18.468Z,24.70
2019-06-08T10:31:49.580Z,24.90
2019-06-08T10:34:20.106Z,25.20
2019-06-08T10:36:50.827Z,25.30
2019-06-08T10:39:21.422Z,25.40
2019-06-08T10:41:52.454Z,25.80
2019-06-08T10:44:23.549Z,26.20
2019-06-08T10:46:54.293Z,26.40
2019-06-08T10:49:28.441Z,26.70
2019-06-08T10:52:01.597Z,27.30
2019-06-08T10:54:31.343Z,27.60
2019-06-08T10:57:05.084Z,28.20
2019-06-08T10:59:37.272Z,28.70
2019-06-08T11:02:13.490Z,29.00
2019-06-08T11:04:43.423Z,29.00
2019-06-08T11:07:17.235Z,29.00
2019-06-08T11:09:50.842Z,29.20
2019-06-08T11:12:21.470Z,29.50
2019-06-08T11:14:52.123Z,29.70
2019-06-08T11:17:22.853Z,29.50
2019-06-08T11:19:53.491Z,29.50
2019-06-08T11:22:24.116Z,29.70
2019-06-08T11:24:54.854Z,30.10
2019-06-08T11:27:28.213Z,30.20
2019-06-08T11:29:59.508Z,30.30
2019-06-08T11:32:30.831Z,30.80
2019-06-08T11:35:02.066Z,31.10
2019-06-08T11:37:32.724Z,31.00
2019-06-08T11:40:04.539Z,31.10
2019-06-08T11:42:35.248Z,31.40
2019-06-08T11:45:09.155Z,31.50
2019-06-08T11:47:39.203Z,30.90
2019-06-08T11:50:13.068Z,30.70
2019-06-08T11:52:42.876Z,30.70
2019-06-08T11:55:13.469Z,31.20
2019-06-08T11:57:44.757Z,31.60
2019-06-08T12:00:27.648Z,32.10
2019-06-08T12:02:58.103Z,32.60
2019-06-08T12:05:28.565Z,32.70
2019-06-08T12:08:02.738Z,33.00
2019-06-08T12:10:33.231Z,33.10
2019-06-08T12:13:04.723Z,33.20
2019-06-08T12:15:35.700Z,33.50
2019-06-08T12:18:08.334Z,33.80
2019-06-08T12:20:40.715Z,34.30
2019-06-08T12:23:12.050Z,34.60
2019-06-08T12:25:42.891Z,34.80
2019-06-08T12:28:14.500Z,34.90
2019-06-08T12:30:47.648Z,34.80
2019-06-08T12:33:18.836Z,34.80
2019-06-08T12:35:50.134Z,34.70
2019-06-08T12:38:20.817Z,34.50
2019-06-08T12:40:51.550Z,34.40
2019-06-08T12:43:22.300Z,34.00
2019-06-08T12:45:53.686Z,34.50
2019-06-08T12:48:25.467Z,34.50
2019-06-08T12:50:56.279Z,35.00
2019-06-08T12:53:28.419Z,35.30
2019-06-08T12:55:59.457Z,35.10
2019-06-08T12:58:30.391Z,35.30
2019-06-08T13:01:01.270Z,35.60
2019-06-08T13:03:31.880Z,35.20
2019-06-08T13:06:04.066Z,35.30
2019-06-08T13:08:34.740Z,35.90
2019-06-08T13:11:07.726Z,36.40
2019-06-08T13:13:37.805Z,37.10
2019-06-08T13:16:08.562Z,36.80
2019-06-08T13:18:40.799Z,35.50
2019-06-08T13:21:22.112Z,34.50
2019-06-08T13:23:47.977Z,34.10
2019-06-08T13:26:24.882Z,33.90
2019-06-08T13:28:50.035Z,34.30
2019-06-08T13:31:24.133Z,34.70
2019-06-08T13:33:52.869Z,35.30
2019-06-08T13:36:26.275Z,35.70
2019-06-08T13:38:55.822Z,36.30
2019-06-08T13:41:29.817Z,37.00
2019-06-08T13:43:59.400Z,37.30
2019-06-08T13:46:30.077Z,37.10
2019-06-08T13:49:01.782Z,37.00
2019-06-08T13:51:32.774Z,37.00
2019-06-08T13:54:03.378Z,37.00
2019-06-08T13:56:34.847Z,37.00
2019-06-08T13:59:08.007Z,37.30
2019-06-08T14:01:40.477Z,37.50
2019-06-08T14:04:11.475Z,36.60
2019-06-08T14:06:42.416Z,35.60
2019-06-08T14:09:14.570Z,34.90
2019-06-08T14:11:47.669Z,34.00
2019-06-08T14:14:19.954Z,33.40
2019-06-08T14:16:50.924Z,33.90
2019-06-08T14:19:23.299Z,34.20
2019-06-08T14:21:54.987Z,34.90
2019-06-08T14:24:29.928Z,34.90
2019-06-08T14:26:58.643Z,34.90
2019-06-08T14:29:30.418Z,34.80
2019-06-08T14:32:01.426Z,35.00
2019-06-08T14:34:32.954Z,35.00
2019-06-08T14:37:03.843Z,35.20
2019-06-08T14:39:34.718Z,35.00
2019-06-08T14:42:08.297Z,34.90
2019-06-08T14:44:39.134Z,35.10
2019-06-08T14:47:14.298Z,35.00
2019-06-08T14:49:48.775Z,34.40
2019-06-08T14:52:22.222Z,33.30
2019-06-08T14:54:53.064Z,31.90
2019-06-08T14:57:25.274Z,30.80
2019-06-08T14:59:59.595Z,29.70
2019-06-08T15:02:31.283Z,28.80
2019-06-08T15:05:03.656Z,28.20
2019-06-08T15:07:34.331Z,27.80
2019-06-08T15:10:09.854Z,27.60
2019-06-08T15:12:38.971Z,27.30
2019-06-08T15:15:11.932Z,27.00
2019-06-08T15:17:42.644Z,26.80
2019-06-08T15:20:13.533Z,26.80
2019-06-08T15:22:45.759Z,26.90
2019-06-08T15:25:18.533Z,26.80
2019-06-08T15:27:49.560Z,26.70
2019-06-08T15:30:29.359Z,26.70
2019-06-08T15:33:00.232Z,26.80
2019-06-08T15:35:31.736Z,26.80
2019-06-08T15:38:02.582Z,26.80
2019-06-08T15:40:33.680Z,26.80
2019-06-08T15:43:04.599Z,26.70
2019-06-08T15:45:35.175Z,26.70
2019-06-08T15:48:08.050Z,26.60
2019-06-08T15:50:38.720Z,26.70
2019-06-08T15:53:09.436Z,26.60
2019-06-08T15:55:40.378Z,26.00
2019-06-08T15:58:11.267Z,26.30
2019-06-08T16:00:42.275Z,26.10
2019-06-08T16:03:13.811Z,26.10
2019-06-08T16:05:45.163Z,25.80
2019-06-08T16:08:15.743Z,25.70
2019-06-08T16:10:46.724Z,25.70
2019-06-08T16:13:17.342Z,25.60
2019-06-08T16:15:48.107Z,25.60
2019-06-08T16:18:19.003Z,25.60
2019-06-08T16:21:00.547Z,25.60
2019-06-08T16:23:39.145Z,25.70
2019-06-08T16:26:12.044Z,25.80
2019-06-08T16:28:44.503Z,26.00
2019-06-08T16:31:16.076Z,26.00
2019-06-08T16:33:47.224Z,26.00
2019-06-08T16:36:17.853Z,26.00
2019-06-08T16:38:52.815Z,25.80
2019-06-08T16:41:22.320Z,25.80
2019-06-08T16:43:53.130Z,25.60
2019-06-08T16:46:24.539Z,25.70
2019-06-08T16:48:55.201Z,25.80
2019-06-08T16:51:27.207Z,25.80
2019-06-08T16:53:58.571Z,26.00
2019-06-08T16:56:30.348Z,25.90
2019-06-08T16:59:01.036Z,25.80
2019-06-08T17:01:32.829Z,25.80
2019-06-08T17:04:03.676Z,25.80
2019-06-08T17:06:35.300Z,25.70
2019-06-08T17:09:07.137Z,25.60
2019-06-08T17:11:37.823Z,25.60
2019-06-08T17:14:08.361Z,25.50
2019-06-08T17:16:40.702Z,25.40
2019-06-08T17:19:11.169Z,25.40
2019-06-08T17:21:43.973Z,25.40
2019-06-08T17:24:15.215Z,25.30
2019-06-08T17:26:50.363Z,25.20
2019-06-08T17:29:22.036Z,25.10
2019-06-08T17:31:58.172Z,25.20
2019-06-08T17:34:29.691Z,25.00
2019-06-08T17:37:00.373Z,24.90
2019-06-08T17:39:33.804Z,24.90
2019-06-08T17:42:09.379Z,24.80
2019-06-08T17:44:44.585Z,24.90
2019-06-08T17:47:18.157Z,24.80
2019-06-08T17:49:48.844Z,24.80
2019-06-08T17:52:20.023Z,24.70
2019-06-08T17:54:52.164Z,24.70
2019-06-08T17:57:24.872Z,24.60
2019-06-08T18:00:00.689Z,24.60
2019-06-08T18:02:44.264Z,24.60
2019-06-08T18:05:20.166Z,24.50
2019-06-08T18:07:51.052Z,24.50
2019-06-08T18:10:33.564Z,24.50
2019-06-08T18:13:11.607Z,24.50
2019-06-08T18:15:43.683Z,24.60
2019-06-08T18:18:20.809Z,24.50
2019-06-08T18:21:01.705Z,24.40
2019-06-08T18:23:32.781Z,24.40
2019-06-08T18:26:12.499Z,24.30
2019-06-08T18:28:45.948Z,24.20
2019-06-08T18:31:18.094Z,24.00
2019-06-08T18:33:50.428Z,24.00
2019-06-08T18:36:21.757Z,24.00
2019-06-08T18:38:53.791Z,24.00
2019-06-08T18:41:24.459Z,23.90
2019-06-08T18:43:58.381Z,23.90
2019-06-08T18:46:28.706Z,23.80
2019-06-08T18:49:00.052Z,23.80
2019-06-08T18:51:31.051Z,23.80
2019-06-08T18:54:11.331Z,23.90
2019-06-08T18:56:35.332Z,23.80
2019-06-08T18:59:07.720Z,23.80
2019-06-08T19:01:40.493Z,23.80
2019-06-08T19:04:11.393Z,23.80
2019-06-08T19:06:45.128Z,23.80
2019-06-08T19:09:19.171Z,23.80
2019-06-08T19:11:51.119Z,23.70
2019-06-08T19:14:22.061Z,23.80
2019-06-08T19:16:54.804Z,23.70
2019-06-08T19:19:28.553Z,23.60
2019-06-08T19:21:58.724Z,23.60
2019-06-08T19:24:29.927Z,23.60
2019-06-08T19:27:01.256Z,23.50
2019-06-08T19:29:33.142Z,23.50
2019-06-08T19:32:04.566Z,23.40
2019-06-08T19:34:39.154Z,23.40
2019-06-08T19:37:09.702Z,23.30
2019-06-08T19:39:43.181Z,23.20
2019-06-08T19:42:13.502Z,23.30
2019-06-08T19:44:54.587Z,23.30
2019-06-08T19:47:17.639Z,23.20
2019-06-08T19:49:54.149Z,23.20
2019-06-08T19:52:21.275Z,23.30
2019-06-08T19:54:53.969Z,23.30
2019-06-08T19:57:27.689Z,23.30
2019-06-08T19:59:57.570Z,23.30
2019-06-08T20:02:29.540Z,23.30
2019-06-08T20:05:00.366Z,23.30
2019-06-08T20:07:32.136Z,23.40
2019-06-08T20:10:07.680Z,23.50
2019-06-08T20:12:38.818Z,23.70
2019-06-08T20:15:10.817Z,23.20
2019-06-08T20:17:41.743Z,23.10
2019-06-08T20:20:13.169Z,23.10
2019-06-08T20:22:44.361Z,23.10
2019-06-08T20:25:17.208Z,23.10
2019-06-08T20:27:49.753Z,23.10
2019-06-08T20:30:19.946Z,23.10
2019-06-08T20:32:52.442Z,22.80
2019-06-08T20:35:24.694Z,23.10
2019-06-08T20:37:57.895Z,23.10
2019-06-08T20:40:29.234Z,23.10
2019-06-08T20:43:00.670Z,23.10
2019-06-08T20:45:31.435Z,23.10
2019-06-08T20:48:02.274Z,23.00
2019-06-08T20:50:33.039Z,23.00
2019-06-08T20:53:08.144Z,23.00
2019-06-08T20:55:40.558Z,23.00
2019-06-08T20:58:12.699Z,22.90
2019-06-08T21:00:43.576Z,23.00
2019-06-08T21:03:14.509Z,23.10
2019-06-08T21:05:46.241Z,23.00
2019-06-08T21:08:17.536Z,23.00
2019-06-08T21:10:51.451Z,22.90
2019-06-08T21:13:20.490Z,22.90
2019-06-08T21:15:54.303Z,22.90
2019-06-08T21:18:23.459Z,22.90
2019-06-08T21:20:55.187Z,22.80
2019-06-08T21:23:28.145Z,22.80
2019-06-08T21:26:00.170Z,22.90
2019-06-08T21:28:31.116Z,22.90
2019-06-08T21:31:02.525Z,22.90
2019-06-08T21:33:33.338Z,23.00
2019-06-08T21:36:05.260Z,22.90
2019-06-08T21:38:37.687Z,22.80
2019-06-08T21:41:10.553Z,22.80
2019-06-08T21:43:41.285Z,22.70
2019-06-08T21:46:12.180Z,22.60
2019-06-08T21:48:42.852Z,22.60
2019-06-08T21:51:14.922Z,22.60
2019-06-08T21:53:48.268Z,22.60
2019-06-08T21:56:18.714Z,22.70
2019-06-08T21:58:50.308Z,22.70
2019-06-08T22:01:21.908Z,22.60
2019-06-08T22:03:53.681Z,22.60
2019-06-08T22:06:24.395Z,22.50
2019-06-08T22:08:58.899Z,22.40
2019-06-08T22:11:29.031Z,22.40
2019-06-08T22:14:00.839Z,22.20
2019-06-08T22:16:32.060Z,22.40
2019-06-08T22:19:04.139Z,22.50
2019-06-08T22:21:37.545Z,22.50
2019-06-08T22:24:07.942Z,22.40
2019-06-08T22:26:38.755Z,22.40
2019-06-08T22:29:09.448Z,22.30
2019-06-08T22:31:40.389Z,22.30
2019-06-08T22:34:10.907Z,22.10
2019-06-08T22:36:42.080Z,22.10
2019-06-08T22:39:12.674Z,22.10
2019-06-08T22:41:43.487Z,22.10
2019-06-08T22:44:14.218Z,22.10
2019-06-08T22:46:44.854Z,22.10
2019-06-08T22:49:15.690Z,22.00
2019-06-08T22:51:47.713Z,22.10
2019-06-08T22:54:18.703Z,22.10
2019-06-08T22:56:49.233Z,22.10
2019-06-08T22:59:20.056Z,22.20
2019-06-08T23:01:50.751Z,22.10
2019-06-08T23:04:21.457Z,22.20
2019-06-08T23:06:52.156Z,22.20
2019-06-08T23:09:22.711Z,22.20
2019-06-08T23:11:55.115Z,22.20
2019-06-08T23:14:31.459Z,22.20
2019-06-08T23:17:03.883Z,22.20
2019-06-08T23:19:37.215Z,22.10
2019-06-08T23:22:08.361Z,22.00
2019-06-08T23:24:39.695Z,22.00
2019-06-08T23:27:11.414Z,21.90
2019-06-08T23:29:42.603Z,21.90
2019-06-08T23:32:13.293Z,21.90
2019-06-08T23:34:44.012Z,21.90
2019-06-08T23:37:14.684Z,21.90
2019-06-08T23:39:47.072Z,21.90
2019-06-08T23:42:17.964Z,21.80
2019-06-08T23:44:48.582Z,21.80
2019-06-08T23:47:19.169Z,21.70
2019-06-08T23:49:49.680Z,21.70
2019-06-08T23:52:20.256Z,21.60
2019-06-08T23:54:50.976Z,21.70
2019-06-08T23:57:21.702Z,21.80
2019-06-08T23:59:52.828Z,21.80
